createdAt,value
2018-04-11T00:01:40.809Z,100178.88
2018-04-11T00:04:08.961Z,100175.84
2018-04-11T00:06:37.112Z,100165.63
2018-04-11T00:09:05.227Z,100171.91
2018-04-11T00:11:33.387Z,100166.48
2018-04-11T00:14:01.682Z,100166.50
2018-04-11T00:16:29.828Z,100164.14
2018-04-11T00:18:57.953Z,100159.78
2018-04-11T00:21:26.096Z,100166.81
2018-04-11T00:23:54.227Z,100159.30
2018-04-11T00:26:22.388Z,100159.72
2018-04-11T00:28:50.536Z,100162.73
2018-04-11T00:31:18.680Z,100156.86
2018-04-11T00:33:46.798Z,100164.79
2018-04-11T00:36:14.947Z,100169.92
2018-04-11T00:38:43.081Z,100167.88
2018-04-11T00:41:11.232Z,100163.80
2018-04-11T00:43:39.371Z,100162.09
2018-04-11T00:46:07.521Z,100160.59
2018-04-11T00:48:35.645Z,100166.38
2018-04-11T00:51:03.802Z,100166.06
2018-04-11T00:53:31.962Z,100173.31
2018-04-11T00:56:00.107Z,100173.48
2018-04-11T00:58:28.248Z,100175.34
2018-04-11T01:00:56.386Z,100179.28
2018-04-11T01:03:24.495Z,100179.78
2018-04-11T01:05:52.642Z,100174.35
2018-04-11T01:08:20.777Z,100168.79
2018-04-11T01:10:48.915Z,100175.38
2018-04-11T01:13:17.075Z,100171.20
2018-04-11T01:15:45.233Z,100162.09
2018-04-11T01:18:13.377Z,100168.11
2018-04-11T01:20:41.516Z,100160.92
2018-04-11T01:23:09.656Z,100165.36
2018-04-11T01:25:37.819Z,100167.38
2018-04-11T01:28:05.957Z,100163.88
2018-04-11T01:30:34.092Z,100158.97
2018-04-11T01:33:02.238Z,100163.03
2018-04-11T01:35:30.365Z,100169.66
2018-04-11T01:37:58.491Z,100172.55
2018-04-11T01:40:26.653Z,100175.45
2018-04-11T01:42:54.810Z,100172.70
2018-04-11T01:45:22.948Z,100177.19
2018-04-11T01:47:51.079Z,100169.72
2018-04-11T01:50:19.251Z,100164.28
2018-04-11T01:52:47.390Z,100165.25
2018-04-11T01:55:15.525Z,100166.79
2018-04-11T01:57:43.672Z,100175.77
2018-04-11T02:00:11.803Z,100176.28
2018-04-11T02:02:39.949Z,100184.02
2018-04-11T02:05:08.106Z,100182.89
2018-04-11T02:07:36.223Z,100182.11
2018-04-11T02:10:04.370Z,100189.33
2018-04-11T02:12:32.486Z,100189.94
2018-04-11T02:15:00.638Z,100199.43
2018-04-11T02:17:28.782Z,100187.84
2018-04-11T02:19:56.915Z,100193.75
2018-04-11T02:22:25.037Z,100185.83
2018-04-11T02:24:53.160Z,100190.59
2018-04-11T02:27:21.284Z,100188.70
2018-04-11T02:29:49.442Z,100200.63
2018-04-11T02:32:17.809Z,100198.96
2018-04-11T02:34:45.956Z,100207.84
2018-04-11T02:37:14.083Z,100198.85
2018-04-11T02:39:42.242Z,100200.03
2018-04-11T02:42:10.376Z,100211.67
2018-04-11T02:44:38.530Z,100217.61
2018-04-11T02:47:06.671Z,100213.52
2018-04-11T02:49:34.821Z,100226.72
2018-04-11T02:52:02.970Z,100219.13
2018-04-11T02:54:31.094Z,100226.47
2018-04-11T02:56:59.431Z,100224.70
2018-04-11T02:59:27.576Z,100219.90
2018-04-11T03:01:55.699Z,100205.63
2018-04-11T03:04:23.879Z,100219.89
2018-04-11T03:06:52.023Z,100227.37
2018-04-11T03:09:20.225Z,100223.75
2018-04-11T03:11:48.324Z,100225.91
2018-04-11T03:14:16.451Z,100213.61
2018-04-11T03:16:44.602Z,100212.55
2018-04-11T03:19:12.746Z,100213.00
2018-04-11T03:21:40.915Z,100214.98
2018-04-11T03:24:09.066Z,100210.13
2018-04-11T03:26:37.187Z,100214.64
2018-04-11T03:29:05.320Z,100202.72
2018-04-11T03:31:33.447Z,100200.01
2018-04-11T03:34:01.746Z,100192.77
2018-04-11T03:36:29.883Z,100205.59
2018-04-11T03:38:58.156Z,100205.67
2018-04-11T03:41:26.305Z,100193.01
2018-04-11T03:43:54.499Z,100190.34
2018-04-11T03:46:22.667Z,100200.98
2018-04-11T03:48:51.173Z,100193.59
2018-04-11T03:51:19.306Z,100197.53
2018-04-11T03:53:47.465Z,100194.94
2018-04-11T03:56:15.620Z,100200.20
2018-04-11T03:58:43.775Z,100195.45
2018-04-11T04:01:11.910Z,100188.22
2018-04-11T04:03:40.027Z,100181.00
2018-04-11T04:06:08.169Z,100174.23
2018-04-11T04:08:36.299Z,100181.13
2018-04-11T04:11:04.443Z,100185.92
2018-04-11T04:13:44.312Z,100187.41
2018-04-11T04:16:24.235Z,100185.57
2018-04-11T04:19:04.128Z,100180.14
2018-04-11T04:21:33.423Z,100183.05
2018-04-11T04:24:01.569Z,100191.22
2018-04-11T04:26:29.718Z,100199.45
2018-04-11T04:28:57.871Z,100206.75
2018-04-11T04:31:26.001Z,100220.70
2018-04-11T04:33:54.143Z,100215.05
2018-04-11T04:36:22.288Z,100208.02
2018-04-11T04:38:50.400Z,100206.31
2018-04-11T04:41:18.533Z,100215.94
2018-04-11T04:43:46.675Z,100217.77
2018-04-11T04:46:14.825Z,100221.19
2018-04-11T04:48:42.961Z,100221.06
2018-04-11T04:51:11.136Z,100229.98
2018-04-11T04:53:39.260Z,100232.25
2018-04-11T04:56:07.384Z,100236.08
2018-04-11T04:58:35.521Z,100232.41
2018-04-11T05:01:03.661Z,100233.25
2018-04-11T05:03:31.785Z,100237.90
2018-04-11T05:05:59.953Z,100242.40
2018-04-11T05:08:28.163Z,100251.68
2018-04-11T05:10:56.305Z,100248.99
2018-04-11T05:13:24.458Z,100249.68
2018-04-11T05:15:52.601Z,100254.17
2018-04-11T05:18:20.742Z,100252.10
2018-04-11T05:20:48.869Z,100253.76
2018-04-11T05:23:17.030Z,100245.67
2018-04-11T05:25:45.142Z,100246.27
2018-04-11T05:28:15.216Z,100245.05
2018-04-11T05:30:43.386Z,100255.83
2018-04-11T05:33:11.491Z,100256.18
2018-04-11T05:35:39.640Z,100260.39
2018-04-11T05:38:07.793Z,100263.08
2018-04-11T05:40:35.910Z,100264.61
2018-04-11T05:43:04.077Z,100266.78
2018-04-11T05:45:32.219Z,100277.17
2018-04-11T05:48:00.418Z,100270.55
2018-04-11T05:50:28.526Z,100277.02
2018-04-11T05:52:56.660Z,100275.92
2018-04-11T05:55:24.866Z,100275.64
2018-04-11T05:57:52.994Z,100281.72
2018-04-11T06:00:21.118Z,100280.28
2018-04-11T06:02:49.258Z,100287.81
2018-04-11T06:05:17.380Z,100293.35
2018-04-11T06:07:45.528Z,100293.09
2018-04-11T06:10:13.650Z,100285.65
2018-04-11T06:12:41.820Z,100286.67
2018-04-11T06:15:09.954Z,100279.61
2018-04-11T06:17:38.071Z,100274.92
2018-04-11T06:20:06.227Z,100286.47
2018-04-11T06:22:34.371Z,100283.06
2018-04-11T06:25:02.510Z,100289.52
2018-04-11T06:27:30.659Z,100287.91
2018-04-11T06:29:58.846Z,100282.34
2018-04-11T06:32:26.997Z,100291.34
2018-04-11T06:34:55.143Z,100292.55
2018-04-11T06:37:23.275Z,100301.80
2018-04-11T06:39:51.416Z,100295.47
2018-04-11T06:42:19.543Z,100292.84
2018-04-11T06:44:47.707Z,100290.23
2018-04-11T06:47:15.845Z,100289.06
2018-04-11T06:49:43.999Z,100297.74
2018-04-11T06:52:12.151Z,100299.23
2018-04-11T06:54:40.273Z,100300.31
2018-04-11T06:57:08.425Z,100299.66
2018-04-11T06:59:36.558Z,100297.06
2018-04-11T07:02:04.701Z,100300.23
2018-04-11T07:04:32.898Z,100300.09
2018-04-11T07:07:01.060Z,100306.71
2018-04-11T07:09:29.192Z,100299.33
2018-04-11T07:11:57.326Z,100297.02
2018-04-11T07:14:25.465Z,100289.25
2018-04-11T07:16:53.589Z,100291.63
2018-04-11T07:19:21.707Z,100288.36
2018-04-11T07:21:52.793Z,100290.69
2018-04-11T07:24:23.990Z,100292.17
2018-04-11T07:26:52.125Z,100290.99
2018-04-11T07:29:20.275Z,100286.93
2018-04-11T07:31:48.411Z,100295.66
2018-04-11T07:34:16.547Z,100295.77
2018-04-11T07:36:44.712Z,100298.61
2018-04-11T07:39:12.835Z,100302.09
2018-04-11T07:41:40.989Z,100297.40
2018-04-11T07:44:09.125Z,100301.67
2018-04-11T07:46:37.259Z,100301.43
2018-04-11T07:49:05.460Z,100295.80
2018-04-11T07:51:33.609Z,100302.76
2018-04-11T07:54:02.140Z,100317.20
2018-04-11T07:56:30.284Z,100315.09
2018-04-11T07:58:58.452Z,100313.62
2018-04-11T08:01:26.581Z,100318.48
2018-04-11T08:03:54.731Z,100321.81
2018-04-11T08:06:22.883Z,100317.02
2018-04-11T08:08:50.991Z,100321.83
2018-04-11T08:11:19.131Z,100325.98
2018-04-11T08:13:47.299Z,100321.20
2018-04-11T08:16:15.457Z,100316.62
2018-04-11T08:18:43.561Z,100318.23
2018-04-11T08:21:11.691Z,100313.92
2018-04-11T08:23:39.310Z,100309.39
2018-04-11T08:26:07.588Z,100312.02
2018-04-11T08:28:35.755Z,100320.55
2018-04-11T08:31:03.891Z,100315.48
2018-04-11T08:33:32.008Z,100322.08
2018-04-11T08:36:00.144Z,100321.28
2018-04-11T08:38:28.281Z,100316.73
2018-04-11T08:40:56.423Z,100322.18
2018-04-11T08:43:24.595Z,100319.77
2018-04-11T08:45:52.718Z,100316.52
2018-04-11T08:48:20.846Z,100314.09
2018-04-11T08:50:48.973Z,100317.61
2018-04-11T08:53:17.095Z,100320.07
2018-04-11T08:55:45.264Z,100320.50
2018-04-11T08:58:13.395Z,100327.78
2018-04-11T09:00:41.532Z,100320.53
2018-04-11T09:03:09.675Z,100317.67
2018-04-11T09:05:37.813Z,100328.50
2018-04-11T09:08:05.985Z,100332.69
2018-04-11T09:10:34.117Z,100329.11
2018-04-11T09:13:02.244Z,100325.48
2018-04-11T09:15:30.400Z,100327.25
2018-04-11T09:17:58.559Z,100325.83
2018-04-11T09:20:26.724Z,100327.44
2018-04-11T09:22:54.847Z,100331.72
2018-04-11T09:25:23.004Z,100329.95
2018-04-11T09:27:51.165Z,100331.48
2018-04-11T09:30:19.279Z,100334.47
2018-04-11T09:32:47.441Z,100336.45
2018-04-11T09:35:15.577Z,100330.77
2018-04-11T09:37:43.720Z,100334.38
2018-04-11T09:40:11.866Z,100333.04
2018-04-11T09:42:40.008Z,100322.24
2018-04-11T09:45:08.161Z,100328.92
2018-04-11T09:47:36.310Z,100323.27
2018-04-11T09:50:04.459Z,100325.57
2018-04-11T09:52:32.608Z,100325.09
2018-04-11T09:55:00.718Z,100336.06
2018-04-11T09:57:28.988Z,100330.14
2018-04-11T09:59:57.131Z,100325.78
2018-04-11T10:02:25.271Z,100328.42
2018-04-11T10:04:53.396Z,100329.59
2018-04-11T10:07:21.541Z,100325.64
2018-04-11T10:09:49.663Z,100331.52
2018-04-11T10:12:17.795Z,100330.69
2018-04-11T10:14:45.956Z,100326.80
2018-04-11T10:17:14.101Z,100332.52
2018-04-11T10:19:42.254Z,100328.25
2018-04-11T10:22:10.382Z,100329.87
2018-04-11T10:24:38.531Z,100331.36
2018-04-11T10:27:06.665Z,100329.70
2018-04-11T10:29:34.848Z,100335.77
2018-04-11T10:32:02.988Z,100339.03
2018-04-11T10:34:31.139Z,100336.25
2018-04-11T10:36:59.269Z,100340.31
2018-04-11T10:39:28.299Z,100337.14
2018-04-11T10:41:56.500Z,100322.64
2018-04-11T10:44:24.626Z,100325.45
2018-04-11T10:46:52.845Z,100321.34
2018-04-11T10:49:20.960Z,100327.60
2018-04-11T10:51:49.434Z,100334.14
2018-04-11T10:54:17.582Z,100335.75
2018-04-11T10:56:45.714Z,100334.95
2018-04-11T10:59:13.872Z,100329.17
2018-04-11T11:01:41.995Z,100332.72
2018-04-11T11:04:10.149Z,100335.90
2018-04-11T11:06:38.291Z,100335.81
2018-04-11T11:09:06.416Z,100339.30
2018-04-11T11:11:34.814Z,100338.34
2018-04-11T11:14:02.949Z,100340.06
2018-04-11T11:16:36.093Z,100334.12
2018-04-11T11:19:04.226Z,100339.70
2018-04-11T11:21:32.356Z,100328.27
2018-04-11T11:24:00.482Z,100328.70
2018-04-11T11:26:28.592Z,100327.22
2018-04-11T11:28:56.754Z,100334.11
2018-04-11T11:31:24.869Z,100321.81
2018-04-11T11:33:52.987Z,100325.28
2018-04-11T11:36:21.156Z,100325.34
2018-04-11T11:38:49.278Z,100327.64
2018-04-11T11:41:17.433Z,100327.53
2018-04-11T11:43:45.558Z,100320.50
2018-04-11T11:46:13.697Z,100311.89
2018-04-11T11:48:41.841Z,100312.08
2018-04-11T11:51:09.981Z,100315.58
2018-04-11T11:53:38.150Z,100317.77
2018-04-11T11:56:06.287Z,100315.95
2018-04-11T11:58:34.428Z,100320.79
2018-04-11T12:01:02.618Z,100316.66
2018-04-11T12:03:30.756Z,100325.08
2018-04-11T12:05:58.884Z,100318.31
2018-04-11T12:08:27.009Z,100316.76
2018-04-11T12:10:55.157Z,100310.98
2018-04-11T12:13:23.291Z,100315.74
2018-04-11T12:15:51.447Z,100314.48
2018-04-11T12:18:19.609Z,100317.06
2018-04-11T12:20:47.749Z,100318.52
2018-04-11T12:23:15.875Z,100310.33
2018-04-11T12:25:44.143Z,100307.59
2018-04-11T12:28:12.265Z,100318.03
2018-04-11T12:30:40.409Z,100320.52
2018-04-11T12:33:08.535Z,100315.41
2018-04-11T12:35:36.671Z,100313.88
2018-04-11T12:38:04.810Z,100307.86
2018-04-11T12:40:32.923Z,100311.11
2018-04-11T12:43:01.077Z,100313.95
2018-04-11T12:45:29.201Z,100304.55
2018-04-11T12:47:57.329Z,100306.19
2018-04-11T12:50:25.493Z,100306.33
2018-04-11T12:52:53.611Z,100305.86
2018-04-11T12:55:21.783Z,100295.34
2018-04-11T12:57:49.937Z,100301.45
2018-04-11T13:00:18.103Z,100303.62
2018-04-11T13:02:46.226Z,100293.44
2018-04-11T13:05:14.365Z,100286.39
2018-04-11T13:07:42.517Z,100287.30
2018-04-11T13:10:10.668Z,100288.84
2018-04-11T13:12:38.808Z,100287.70
2018-04-11T13:15:06.996Z,100290.40
2018-04-11T13:17:35.093Z,100286.53
2018-04-11T13:20:03.246Z,100280.05
2018-04-11T13:22:31.374Z,100282.78
2018-04-11T13:24:59.509Z,100286.74
2018-04-11T13:27:27.649Z,100284.30
2018-04-11T13:29:55.777Z,100280.75
2018-04-11T13:32:23.932Z,100283.20
2018-04-11T13:34:52.084Z,100284.31
2018-04-11T13:37:20.216Z,100281.91
2018-04-11T13:39:48.395Z,100281.28
2018-04-11T13:42:16.508Z,100282.02
2018-04-11T13:44:44.677Z,100281.53
2018-04-11T13:47:12.792Z,100281.17
2018-04-11T13:49:40.964Z,100273.98
2018-04-11T13:52:09.078Z,100279.56
2018-04-11T13:54:37.225Z,100270.41
2018-04-11T13:57:05.406Z,100269.94
2018-04-11T13:59:33.566Z,100277.22
2018-04-11T14:02:01.687Z,100270.56
2018-04-11T14:04:29.835Z,100264.85
2018-04-11T14:06:57.993Z,100260.44
2018-04-11T14:09:26.103Z,100254.76
2018-04-11T14:11:54.234Z,100255.18
2018-04-11T14:14:22.395Z,100255.09
2018-04-11T14:16:50.515Z,100254.30
2018-04-11T14:19:18.658Z,100255.61
2018-04-11T14:21:46.806Z,100249.67
2018-04-11T14:24:14.937Z,100251.88
2018-04-11T14:26:43.083Z,100250.39
2018-04-11T14:29:11.269Z,100251.58
2018-04-11T14:31:39.421Z,100256.34
2018-04-11T14:34:07.585Z,100254.59
2018-04-11T14:36:35.754Z,100252.66
2018-04-11T14:39:03.915Z,100243.80
2018-04-11T14:41:32.095Z,100247.36
2018-04-11T14:44:00.225Z,100243.84
2018-04-11T14:46:28.393Z,100247.25
2018-04-11T14:48:56.511Z,100242.92
2018-04-11T14:51:24.672Z,100236.55
2018-04-11T14:53:52.812Z,100240.48
2018-04-11T14:56:20.943Z,100235.53
2018-04-11T14:58:49.104Z,100245.17
2018-04-11T15:01:17.221Z,100244.34
2018-04-11T15:03:45.350Z,100239.08
2018-04-11T15:06:13.674Z,100239.78
2018-04-11T15:08:41.780Z,100236.69
2018-04-11T15:11:09.924Z,100241.14
2018-04-11T15:13:38.092Z,100242.36
2018-04-11T15:16:06.201Z,100245.64
2018-04-11T15:18:34.330Z,100236.38
2018-04-11T15:21:02.490Z,100239.44
2018-04-11T15:23:30.629Z,100237.86
2018-04-11T15:25:58.747Z,100237.46
2018-04-11T15:28:26.918Z,100237.86
2018-04-11T15:30:55.057Z,100243.63
2018-04-11T15:33:23.181Z,100240.37
2018-04-11T15:35:51.354Z,100242.49
2018-04-11T15:38:19.486Z,100235.33
2018-04-11T15:40:47.622Z,100239.12
2018-04-11T15:43:15.791Z,100237.08
2018-04-11T15:45:43.933Z,100237.07
2018-04-11T15:48:12.158Z,100237.75
2018-04-11T15:50:40.329Z,100234.73
2018-04-11T15:53:08.449Z,100242.25
2018-04-11T15:55:36.585Z,100240.48
2018-04-11T15:58:04.824Z,100238.86
2018-04-11T16:00:32.948Z,100236.94
2018-04-11T16:03:01.086Z,100239.36
2018-04-11T16:05:29.232Z,100237.29
2018-04-11T16:07:57.384Z,100239.12
2018-04-11T16:10:25.513Z,100235.99
2018-04-11T16:12:53.680Z,100236.28
2018-04-11T16:15:21.815Z,100236.14
2018-04-11T16:17:49.978Z,100236.18
2018-04-11T16:20:18.138Z,100233.70
2018-04-11T16:22:46.275Z,100231.92
2018-04-11T16:25:14.419Z,100229.91
2018-04-11T16:27:42.555Z,100224.05
2018-04-11T16:30:10.681Z,100227.86
2018-04-11T16:32:38.828Z,100216.52
2018-04-11T16:35:06.981Z,100222.84
2018-04-11T16:37:35.114Z,100220.41
2018-04-11T16:40:03.275Z,100220.94
2018-04-11T16:42:31.424Z,100214.84
2018-04-11T16:44:59.541Z,100216.84
2018-04-11T16:47:27.728Z,100214.74
2018-04-11T16:49:55.855Z,100220.72
2018-04-11T16:52:24.026Z,100216.09
2018-04-11T16:54:52.163Z,100216.99
2018-04-11T16:57:20.312Z,100211.05
2018-04-11T16:59:48.432Z,100213.58
2018-04-11T17:02:16.590Z,100211.39
2018-04-11T17:04:44.727Z,100210.06
2018-04-11T17:07:12.850Z,100202.34
2018-04-11T17:09:41.030Z,100205.77
2018-04-11T17:12:09.125Z,100203.69
2018-04-11T17:14:42.903Z,100201.13
2018-04-11T17:17:11.042Z,100187.15
2018-04-11T17:19:39.198Z,100190.59
2018-04-11T17:22:19.150Z,100186.52
2018-04-11T17:24:59.149Z,100191.11
2018-04-11T17:30:45.150Z,100183.50
2018-04-11T17:33:13.311Z,100183.25
2018-04-11T17:35:45.160Z,100183.25
2018-04-11T17:38:13.301Z,100184.19
2018-04-11T17:40:41.454Z,100187.84
2018-04-11T17:43:09.604Z,100189.52
2018-04-11T17:45:37.735Z,100189.89
2018-04-11T17:48:09.570Z,100194.11
2018-04-11T17:50:37.703Z,100193.69
2018-04-11T17:53:05.873Z,100187.42
2018-04-11T17:55:34.022Z,100186.20
2018-04-11T17:58:02.210Z,100190.80
2018-04-11T18:00:30.490Z,100192.16
2018-04-11T18:02:58.648Z,100194.34
2018-04-11T18:05:26.773Z,100194.06
2018-04-11T18:07:54.948Z,100191.62
2018-04-11T18:10:23.097Z,100194.20
2018-04-11T18:12:51.269Z,100194.84
2018-04-11T18:15:19.392Z,100194.83
2018-04-11T18:17:47.542Z,100193.09
2018-04-11T18:20:15.671Z,100197.14
2018-04-11T18:22:47.604Z,100193.21
2018-04-11T18:25:15.754Z,100198.61
2018-04-11T18:27:43.906Z,100193.42
2018-04-11T18:30:12.049Z,100198.43
2018-04-11T18:32:40.171Z,100200.14
2018-04-11T18:35:08.461Z,100189.30
2018-04-11T18:37:36.609Z,100199.33
2018-04-11T18:40:04.731Z,100206.52
2018-04-11T18:42:32.855Z,100205.02
2018-04-11T18:45:00.978Z,100210.55
2018-04-11T18:47:29.144Z,100206.34
2018-04-11T18:49:57.290Z,100207.88
2018-04-11T18:52:25.414Z,100207.70
2018-04-11T18:54:53.552Z,100209.44
2018-04-11T18:57:21.686Z,100209.44
2018-04-11T18:59:49.824Z,100207.55
2018-04-11T19:02:18.016Z,100213.87
2018-04-11T19:04:46.144Z,100218.84
2018-04-11T19:07:14.265Z,100215.72
2018-04-11T19:09:42.397Z,100215.55
2018-04-11T19:12:10.538Z,100211.45
2018-04-11T19:14:38.768Z,100216.31
2018-04-11T19:17:10.335Z,100212.36
2018-04-11T19:19:38.466Z,100215.17
2018-04-11T19:22:06.601Z,100216.64
2018-04-11T19:24:34.755Z,100216.20
2018-04-11T19:27:02.963Z,100216.70
2018-04-11T19:29:31.094Z,100223.72
2018-04-11T19:31:59.273Z,100220.09
2018-04-11T19:34:27.456Z,100218.02
2018-04-11T19:36:58.932Z,100223.27
2018-04-11T19:39:27.069Z,100212.31
2018-04-11T19:41:55.199Z,100216.86
2018-04-11T19:44:25.810Z,100211.42
2018-04-11T19:46:53.873Z,100214.53
2018-04-11T19:49:22.033Z,100210.34
2018-04-11T19:51:50.146Z,100212.32
2018-04-11T19:54:18.269Z,100209.53
2018-04-11T19:56:46.403Z,100200.20
2018-04-11T19:59:14.534Z,100209.64
2018-04-11T20:01:42.662Z,100211.39
2018-04-11T20:04:10.967Z,100206.53
2018-04-11T20:06:39.188Z,100205.58
2018-04-11T20:09:07.673Z,100206.36
2018-04-11T20:11:36.087Z,100210.13
2018-04-11T20:14:04.236Z,100202.17
2018-04-11T20:16:32.358Z,100200.56
2018-04-11T20:19:00.507Z,100209.95
2018-04-11T20:21:28.641Z,100201.64
2018-04-11T20:23:56.800Z,100206.52
2018-04-11T20:26:24.915Z,100206.27
2018-04-11T20:28:53.050Z,100205.94
2018-04-11T20:31:21.193Z,100205.86
2018-04-11T20:33:49.335Z,100209.28
2018-04-11T20:36:17.462Z,100207.05
2018-04-11T20:38:45.593Z,100205.75
2018-04-11T20:41:13.727Z,100205.44
2018-04-11T20:43:41.855Z,100205.83
2018-04-11T20:46:10.021Z,100199.62
2018-04-11T20:48:38.137Z,100200.19
2018-04-11T20:51:06.334Z,100205.83
2018-04-11T20:53:34.456Z,100197.92
2018-04-11T20:56:02.593Z,100198.69
2018-04-11T20:58:30.727Z,100196.16
2018-04-11T21:00:58.849Z,100198.78
2018-04-11T21:03:30.597Z,100194.42
2018-04-11T21:05:58.733Z,100191.48
2018-04-11T21:08:26.870Z,100183.66
2018-04-11T21:10:54.990Z,100191.22
2018-04-11T21:13:23.131Z,100185.38
2018-04-11T21:15:51.240Z,100186.16
2018-04-11T21:18:19.404Z,100180.88
2018-04-11T21:20:47.537Z,100179.77
2018-04-11T21:23:15.693Z,100181.14
2018-04-11T21:25:43.881Z,100178.59
2018-04-11T21:28:11.982Z,100174.02
2018-04-11T21:30:40.158Z,100172.77
2018-04-11T21:33:08.439Z,100169.13
2018-04-11T21:35:36.565Z,100168.45
2018-04-11T21:38:04.842Z,100169.80
2018-04-11T21:40:32.985Z,100161.44
2018-04-11T21:43:01.099Z,100157.82
2018-04-11T21:45:29.228Z,100160.23
2018-04-11T21:47:57.349Z,100154.31
2018-04-11T21:50:25.504Z,100150.50
2018-04-11T21:52:53.635Z,100149.61
2018-04-11T21:55:21.782Z,100143.41
2018-04-11T21:57:49.904Z,100148.06
2018-04-11T22:00:18.035Z,100140.66
2018-04-11T22:02:46.184Z,100138.86
2018-04-11T22:05:14.304Z,100139.07
2018-04-11T22:07:42.408Z,100127.30
2018-04-11T22:10:10.541Z,100123.13
2018-04-11T22:12:38.671Z,100119.09
2018-04-11T22:15:06.802Z,100124.66
2018-04-11T22:17:34.905Z,100120.08
2018-04-11T22:20:03.024Z,100118.05
2018-04-11T22:22:31.169Z,100109.43
2018-04-11T22:24:59.313Z,100107.90
2018-04-11T22:27:27.426Z,100105.98
2018-04-11T22:29:55.647Z,100106.83
2018-04-11T22:32:23.764Z,100105.72
2018-04-11T22:34:51.909Z,100112.75
2018-04-11T22:37:20.019Z,100107.72
2018-04-11T22:39:48.185Z,100100.47
2018-04-11T22:42:16.327Z,100100.94
2018-04-11T22:44:44.772Z,100095.84
2018-04-11T22:47:12.912Z,100097.22
2018-04-11T22:49:41.055Z,100098.63
2018-04-11T22:52:09.193Z,100098.59
2018-04-11T22:54:37.313Z,100096.91
2018-04-11T22:57:05.464Z,100097.13
2018-04-11T22:59:33.615Z,100094.08
2018-04-11T23:02:01.771Z,100097.07
2018-04-11T23:04:29.897Z,100095.56
2018-04-11T23:06:58.024Z,100098.67
2018-04-11T23:09:26.193Z,100094.55
2018-04-11T23:11:54.321Z,100092.16
2018-04-11T23:14:22.464Z,100095.35
2018-04-11T23:16:50.636Z,100100.91
2018-04-11T23:19:18.788Z,100095.87
2018-04-11T23:21:46.943Z,100085.25
2018-04-11T23:24:15.112Z,100088.16
2018-04-11T23:26:43.259Z,100094.03
2018-04-11T23:29:11.420Z,100087.75
2018-04-11T23:31:39.560Z,100080.39
2018-04-11T23:34:07.704Z,100081.88
2018-04-11T23:36:35.870Z,100083.09
2018-04-11T23:39:04.016Z,100076.76
2018-04-11T23:41:32.191Z,100074.70
2018-04-11T23:44:00.325Z,100078.59
2018-04-11T23:46:28.459Z,100078.39
2018-04-11T23:48:56.619Z,100075.72
2018-04-11T23:51:24.767Z,100074.98
2018-04-11T23:53:52.927Z,100063.43
2018-04-11T23:56:21.068Z,100069.81
2018-04-11T23:58:49.216Z,100065.09
